Loyalton, California
Current Conditions -  °F | °C
As of 6:30 PM on Wednesday 17 Dec 2014 (Local Time) from KRTS Reporting Station
Overcast Overcast  
Wind Chill: 36°   Ceiling: 11000
Heat Index: 36°   Visibility: 10mi
Dew Point: 27°   Wind: 0mph
Humidity: 70%   Direction: NA
Pressure: 29.99"   Gusts: NA
Location:  39.68°N, 120.24°W
Report Text: KRTS 180230Z AUTO 00000KT 10SM SCT041 SCT085 OVC110 02/M03 A2999 RMK AO2
Loading
Personal Weather Stations






























Interactive Weather Map New forecast layout! Learn more

10-Day Weather Forecast

Advertisements
Track Severe Weather on mobile